Time;durP1;ratioP1;P1;durP2;ratioP2;P2;SDS_P1;SDS_P2;PMS_P1;PMS_P2;Temp;Humidity;BMP_temperature;BMP_pressure;BME280_temperature;BME280_humidity;BME280_pressure;Samples;Min_cycle;Max_cycle;Signal;HPM_P1;HPM_P2
2022/02/17 00:00:12;;;;;;;17.55;9.20;;;;;;;6.56;49.30;93546.66;5011590;28;20038;-76
2022/02/17 00:02:39;;;;;;;14.93;8.35;;;;;;;6.73;49.34;93575.13;4999545;28;20392;-76
2022/02/17 00:05:04;;;;;;;19.02;8.60;;;;;;;6.59;49.53;93558.50;5004890;28;20050;-76
2022/02/17 00:07:30;;;;;;;16.98;9.40;;;;;;;6.95;48.74;93582.34;4996525;28;21261;-75
2022/02/17 00:09:55;;;;;;;18.83;9.85;;;;;;;6.70;49.24;93600.28;5001609;28;20025;-75
2022/02/17 00:12:20;;;;;;;17.55;8.32;;;;;;;6.66;49.12;93580.81;5008320;28;20037;-76
2022/02/17 00:14:46;;;;;;;16.30;9.10;;;;;;;6.67;48.96;93579.72;5004498;28;20119;-76
2022/02/17 00:17:11;;;;;;;15.13;9.48;;;;;;;6.55;48.99;93560.19;4998704;28;20038;-76
2022/02/17 00:19:36;;;;;;;16.27;9.65;;;;;;;6.61;49.37;93588.03;5003761;28;20121;-76
2022/02/17 00:22:02;;;;;;;15.60;9.10;;;;;;;6.27;49.74;93567.28;4999961;28;20025;-75
2022/02/17 00:24:28;;;;;;;22.98;9.82;;;;;;;6.40;49.64;93601.66;5003535;28;20504;-76
2022/02/17 00:26:54;;;;;;;14.93;8.23;;;;;;;6.39;49.50;93589.50;5002429;28;20030;-76
2022/02/17 00:29:19;;;;;;;17.00;8.30;;;;;;;6.59;49.52;93583.06;4992805;28;21914;-76
2022/02/17 00:31:45;;;;;;;13.80;8.00;;;;;;;6.36;49.25;93576.13;5006696;28;20161;-76
2022/02/17 00:34:10;;;;;;;14.35;8.65;;;;;;;6.23;49.30;93566.28;5003410;28;20044;-76
2022/02/17 00:36:37;;;;;;;18.33;8.20;;;;;;;6.33;49.45;93584.59;5002674;28;20430;-76
2022/02/17 00:39:03;;;;;;;17.52;10.40;;;;;;;6.29;49.40;93580.97;5017778;28;20087;-76
2022/02/17 00:41:28;;;;;;;20.70;11.27;;;;;;;6.35;49.58;93566.63;4988270;28;20040;-76
2022/02/17 00:43:54;;;;;;;18.73;11.48;;;;;;;6.15;49.20;93551.88;5001557;28;20302;-75
2022/02/17 00:46:19;;;;;;;22.42;10.73;;;;;;;6.37;49.20;93578.44;5008741;28;20933;-76
2022/02/17 00:48:44;;;;;;;20.48;11.13;;;;;;;6.44;49.27;93570.16;4996447;28;20026;-76
2022/02/17 00:51:10;;;;;;;23.85;10.75;;;;;;;6.24;48.72;93547.53;4999032;28;20435;-76
2022/02/17 00:53:35;;;;;;;21.23;11.20;;;;;;;6.16;49.06;93568.56;5004277;28;20091;-76
2022/02/17 00:56:01;;;;;;;24.00;11.52;;;;;;;5.87;49.25;93543.13;4995832;28;20102;-76
2022/02/17 00:58:26;;;;;;;23.98;12.65;;;;;;;6.04;49.67;93565.53;4990927;28;20392;-76
2022/02/17 01:00:51;;;;;;;21.35;12.48;;;;;;;6.02;49.68;93573.00;5001413;28;20034;-76
2022/02/17 01:03:17;;;;;;;22.65;11.98;;;;;;;6.17;49.26;93570.09;4994669;28;20978;-76
2022/02/17 01:05:43;;;;;;;24.92;13.18;;;;;;;6.12;49.42;93559.59;5000765;28;20049;-76
2022/02/17 01:08:09;;;;;;;26.90;14.18;;;;;;;5.92;49.94;93566.03;5000908;28;20570;-76
2022/02/17 01:10:34;;;;;;;28.73;16.00;;;;;;;5.68;50.56;93528.41;4999643;28;20045;-76
2022/02/17 01:13:00;;;;;;;23.83;14.00;;;;;;;5.77;50.54;93553.88;4997056;28;20060;-76
2022/02/17 01:15:26;;;;;;;24.63;13.30;;;;;;;5.88;50.63;93560.53;5004257;28;20353;-76
2022/02/17 01:17:51;;;;;;;27.73;13.57;;;;;;;5.82;50.20;93530.00;4998495;28;20103;-76
2022/02/17 01:20:17;;;;;;;25.08;12.73;;;;;;;5.87;50.36;93558.94;5005615;28;20072;-76
2022/02/17 01:22:45;;;;;;;20.13;10.85;;;;;;;5.88;50.27;93534.13;4994955;28;20480;-75
2022/02/17 01:25:12;;;;;;;25.65;12.20;;;;;;;5.72;49.98;93519.66;5006220;28;20034;-76
2022/02/17 01:27:38;;;;;;;22.17;11.15;;;;;;;5.70;49.94;93511.22;5005353;28;20036;-76
2022/02/17 01:30:05;;;;;;;18.85;11.43;;;;;;;5.73;49.75;93523.81;5000274;28;20558;-76
2022/02/17 01:32:30;;;;;;;24.08;12.32;;;;;;;5.81;49.93;93533.72;5006453;28;20038;-76
2022/02/17 01:34:57;;;;;;;28.58;14.50;;;;;;;5.81;49.64;93523.19;5000299;28;20041;-76
2022/02/17 01:37:22;;;;;;;29.98;15.88;;;;;;;5.33;50.62;93503.38;5003412;28;20488;-76
2022/02/17 01:39:48;;;;;;;28.38;14.85;;;;;;;5.37;51.06;93514.94;5003912;28;20037;-76
2022/02/17 01:42:13;;;;;;;30.70;15.30;;;;;;;5.40;50.96;93514.34;5000183;28;20040;-76
2022/02/17 01:44:39;;;;;;;21.00;14.52;;;;;;;5.41;51.01;93505.38;4999107;28;20049;-76
2022/02/17 01:47:09;;;;;;;24.20;12.98;;;;;;;5.39;50.52;93486.41;5003803;28;20030;-76
2022/02/17 01:49:34;;;;;;;22.08;12.35;;;;;;;5.44;50.75;93486.31;4995306;28;20920;-76
2022/02/17 01:52:00;;;;;;;33.65;12.27;;;;;;;5.43;50.55;93474.97;5008732;28;20483;-77
2022/02/17 01:54:26;;;;;;;28.05;13.10;;;;;;;5.35;50.35;93443.22;5000656;28;20504;-76
2022/02/17 01:56:51;;;;;;;25.75;13.40;;;;;;;5.69;50.33;93501.72;4995756;28;20125;-76
2022/02/17 01:59:17;;;;;;;23.92;11.20;;;;;;;5.67;49.98;93488.06;5003861;28;20041;-76
2022/02/17 02:01:42;;;;;;;21.70;10.77;;;;;;;5.70;49.84;93500.66;5001146;28;20041;-76
2022/02/17 02:04:08;;;;;;;22.58;11.13;;;;;;;5.50;49.90;93479.91;4998066;28;20033;-76
2022/02/17 02:06:33;;;;;;;24.27;12.98;;;;;;;5.43;50.31;93505.88;5003055;28;20575;-76
2022/02/17 02:08:59;;;;;;;24.42;14.32;;;;;;;5.26;51.32;93497.69;5003458;28;20041;-76
2022/02/17 02:11:25;;;;;;;25.40;15.65;;;;;;;4.69;51.77;93429.22;5000528;28;20050;-77
2022/02/17 02:13:50;;;;;;;26.20;12.65;;;;;;;5.05;51.72;93474.25;4996371;28;20044;-76
2022/02/17 02:16:16;;;;;;;23.25;12.85;;;;;;;5.05;52.18;93489.28;5004926;28;20021;-76
2022/02/17 02:18:41;;;;;;;23.13;13.45;;;;;;;4.81;52.09;93465.66;5009175;28;20032;-76
2022/02/17 02:21:06;;;;;;;20.95;10.80;;;;;;;4.86;52.31;93477.97;5011815;28;20119;-76
2022/02/17 02:23:33;;;;;;;22.35;12.13;;;;;;;5.06;52.05;93496.13;5009684;28;20504;-76
2022/02/17 02:25:59;;;;;;;16.95;10.32;;;;;;;5.20;51.76;93504.09;5004926;28;20497;-76
2022/02/17 02:28:27;;;;;;;18.95;11.00;;;;;;;5.07;51.58;93493.22;5010657;28;20044;-76
2022/02/17 02:30:53;;;;;;;30.55;13.23;;;;;;;5.28;51.23;93498.97;5018759;28;20029;-76
2022/02/17 02:33:20;;;;;;;30.40;13.02;;;;;;;4.99;51.97;93501.75;5010122;28;20057;-76
2022/02/17 02:35:46;;;;;;;27.98;13.40;;;;;;;4.05;53.36;93434.22;5022955;28;20443;-75
2022/02/17 02:38:12;;;;;;;30.75;15.25;;;;;;;4.29;54.33;93482.38;5008145;28;20083;-76
2022/02/17 02:40:38;;;;;;;28.45;14.68;;;;;;;3.98;55.22;93491.66;5006467;28;20041;-76
2022/02/17 02:43:05;;;;;;;29.33;15.23;;;;;;;3.88;56.40;93510.97;5006472;28;20052;-75
2022/02/17 02:45:31;;;;;;;28.42;15.02;;;;;;;4.33;54.78;93499.19;5009600;28;20036;-75
2022/02/17 02:47:57;;;;;;;28.13;15.00;;;;;;;4.48;54.74;93491.13;4998207;28;20064;-76
2022/02/17 02:50:22;;;;;;;28.00;14.32;;;;;;;4.54;53.97;93483.94;5015035;28;20137;-75
2022/02/17 02:52:47;;;;;;;23.60;14.23;;;;;;;4.63;53.97;93492.78;5002603;28;20049;-76
2022/02/17 02:55:13;;;;;;;27.60;13.88;;;;;;;4.72;53.83;93504.25;5007325;28;20492;-76
2022/02/17 02:57:38;;;;;;;28.15;14.02;;;;;;;4.64;53.30;93492.50;5009984;28;20029;-76
2022/02/17 03:00:07;;;;;;;24.20;13.70;;;;;;;4.64;53.28;93475.91;5007315;28;20073;-76
2022/02/17 03:02:32;;;;;;;28.23;12.55;;;;;;;5.04;52.84;93483.22;5006312;28;20416;-76
2022/02/17 03:04:58;;;;;;;21.67;13.02;;;;;;;5.00;53.09;93494.63;5009747;28;20026;-76
2022/02/17 03:07:23;;;;;;;25.08;14.75;;;;;;;4.97;53.44;93503.91;5004336;28;20041;-76
2022/02/17 03:09:49;;;;;;;30.75;13.98;;;;;;;4.99;53.37;93501.75;5010154;28;20480;-76
2022/02/17 03:12:14;;;;;;;25.15;12.95;;;;;;;4.86;52.92;93486.66;5006073;28;20541;-76
2022/02/17 03:14:42;;;;;;;20.08;12.68;;;;;;;4.87;52.93;93472.44;5007520;28;20048;-76
2022/02/17 03:17:08;;;;;;;29.75;13.43;;;;;;;5.28;52.61;93500.84;5009139;28;20036;-76
2022/02/17 03:19:34;;;;;;;24.83;12.98;;;;;;;5.14;52.41;93471.75;5011369;28;20045;-76
2022/02/17 03:21:59;;;;;;;21.17;11.50;;;;;;;5.16;52.03;93468.84;5010697;28;20032;-76
2022/02/17 03:24:25;;;;;;;24.05;11.63;;;;;;;5.12;52.13;93487.88;5003031;28;20136;-76
2022/02/17 03:26:50;;;;;;;23.08;13.45;;;;;;;4.90;52.74;93485.03;5003685;28;20046;-76
2022/02/17 03:29:15;;;;;;;24.88;12.40;;;;;;;4.69;53.17;93463.47;5005555;28;20044;-76
2022/02/17 03:31:41;;;;;;;26.75;14.43;;;;;;;4.70;53.39;93464.22;5008067;28;20037;-76
2022/02/17 03:34:06;;;;;;;24.33;13.43;;;;;;;4.65;53.65;93474.81;5016875;28;20132;-76
2022/02/17 03:36:31;;;;;;;27.65;13.93;;;;;;;4.62;54.28;93470.13;5000558;28;20397;-76
2022/02/17 03:38:57;;;;;;;27.80;13.80;;;;;;;4.52;53.93;93443.94;5009707;28;20084;-76
2022/02/17 03:41:23;;;;;;;21.27;12.50;;;;;;;4.62;53.45;93438.53;5002534;28;20080;-76
2022/02/17 03:43:49;;;;;;;18.88;10.98;;;;;;;4.63;53.78;93454.06;5004677;28;20399;-76
2022/02/17 03:46:14;;;;;;;18.60;10.65;;;;;;;4.68;53.94;93476.91;5008516;28;20108;-76
2022/02/17 03:48:39;;;;;;;21.48;11.07;;;;;;;4.68;53.62;93463.72;5007583;28;20030;-76
2022/02/17 03:51:05;;;;;;;16.92;9.23;;;;;;;4.85;53.10;93474.56;5005662;28;20050;-76
2022/02/17 03:53:30;;;;;;;18.45;11.20;;;;;;;4.95;52.93;93471.78;5003955;28;20688;-76
2022/02/17 03:55:55;;;;;;;24.55;13.07;;;;;;;4.73;53.48;93453.13;5001779;28;20033;-76
2022/02/17 04:01:05;;;;;;;18.02;9.93;;;;;;;4.95;53.00;93463.88;5001735;28;20044;-76
2022/02/17 04:03:30;;;;;;;20.85;11.18;;;;;;;5.06;53.00;93496.13;5006878;28;20053;-76
2022/02/17 04:05:56;;;;;;;19.40;11.52;;;;;;;4.85;52.51;93458.75;5006701;28;20049;-76
2022/02/17 04:08:22;;;;;;;23.42;12.95;;;;;;;4.88;52.97;93497.72;4999579;28;20045;-76
2022/02/17 04:10:47;;;;;;;22.67;11.20;;;;;;;4.59;53.29;93470.72;5003243;28;20041;-76
2022/02/17 04:13:13;;;;;;;21.13;10.68;;;;;;;4.44;53.09;93482.22;5003207;28;20117;-75
2022/02/17 04:15:38;;;;;;;22.02;12.00;;;;;;;4.46;54.25;93511.66;5020317;28;20029;-75
2022/02/17 04:18:04;;;;;;;26.50;11.48;;;;;;;4.44;54.48;93527.00;5004847;28;20045;-75
2022/02/17 04:20:29;;;;;;;28.25;14.15;;;;;;;4.21;55.05;93496.94;4998122;28;20432;-77
2022/02/17 04:22:54;;;;;;;29.98;14.52;;;;;;;4.26;55.01;93490.81;5004575;28;20523;-76
2022/02/17 04:25:20;;;;;;;29.38;14.32;;;;;;;4.34;54.99;93489.47;5003721;28;20530;-75
2022/02/17 04:27:45;;;;;;;25.02;14.57;;;;;;;4.60;54.74;93504.66;4999844;28;20078;-76
2022/02/17 04:30:11;;;;;;;26.55;14.63;;;;;;;4.64;54.47;93505.66;5002991;28;20100;-76
2022/02/17 04:32:36;;;;;;;34.10;15.40;;;;;;;4.55;54.93;93486.28;5008087;28;20246;-76
2022/02/17 04:35:02;;;;;;;32.17;15.27;;;;;;;4.47;54.99;93491.41;5003531;28;20042;-76
2022/02/17 04:37:27;;;;;;;26.85;15.18;;;;;;;4.53;54.90;93477.09;5003334;28;20176;-76
2022/02/17 04:39:52;;;;;;;31.02;14.57;;;;;;;4.59;55.01;93487.31;5000550;28;20026;-75
2022/02/17 04:42:18;;;;;;;36.42;16.08;;;;;;;4.82;54.93;93485.66;5002358;28;20423;-75
2022/02/17 04:44:45;;;;;;;30.05;15.43;;;;;;;4.94;54.68;93478.09;5000085;28;20035;-76
2022/02/17 04:47:10;;;;;;;35.53;15.95;;;;;;;5.00;54.29;93461.16;5002954;28;20034;-76
2022/02/17 04:49:36;;;;;;;29.50;14.90;;;;;;;5.11;53.58;93452.03;4999706;28;20034;-77
2022/02/17 04:52:01;;;;;;;26.08;14.82;;;;;;;4.80;54.38;93464.06;5001801;28;20017;-76
2022/02/17 04:54:27;;;;;;;26.80;14.93;;;;;;;4.69;55.43;93465.31;5003248;28;20052;-75
2022/02/17 04:56:53;;;;;;;27.17;14.52;;;;;;;4.72;55.03;93443.66;4998942;28;20072;-76
2022/02/17 04:59:19;;;;;;;27.85;15.50;;;;;;;4.90;54.82;93450.75;5006482;28;20109;-76
2022/02/17 05:01:44;;;;;;;31.95;16.33;;;;;;;5.00;54.68;93449.81;5004410;28;20033;-76
2022/02/17 05:04:10;;;;;;;29.85;14.75;;;;;;;5.13;54.08;93439.38;5001532;28;20032;-76
2022/02/17 05:06:35;;;;;;;29.08;16.33;;;;;;;5.10;54.07;93457.59;5005866;28;20560;-76
2022/02/17 05:09:00;;;;;;;25.58;14.70;;;;;;;5.18;54.14;93445.63;5001834;28;20038;-76
2022/02/17 05:11:26;;;;;;;32.97;15.38;;;;;;;5.20;53.73;93444.25;5003046;28;20571;-76
2022/02/17 05:13:51;;;;;;;29.65;15.10;;;;;;;5.07;54.49;93466.88;5000134;28;20049;-76
2022/02/17 05:16:17;;;;;;;29.83;16.33;;;;;;;5.04;54.08;93433.16;5000760;28;20030;-76
2022/02/17 05:18:42;;;;;;;33.60;16.17;;;;;;;5.09;54.56;93463.91;5009820;28;20515;-76
2022/02/17 05:21:07;;;;;;;26.20;15.77;;;;;;;5.33;53.58;93456.72;5005880;28;20083;-76
2022/02/17 05:23:33;;;;;;;31.83;17.42;;;;;;;5.37;53.43;93446.38;5001757;28;20372;-76
2022/02/17 05:25:58;;;;;;;42.45;15.45;;;;;;;5.23;53.83;93453.44;5000840;28;20380;-75
2022/02/17 05:28:23;;;;;;;33.58;17.83;;;;;;;5.28;53.59;93458.66;4999312;28;20029;-76
2022/02/17 05:30:49;;;;;;;33.38;17.30;;;;;;;5.27;53.39;93455.22;4999685;28;20060;-76
2022/02/17 05:33:15;;;;;;;33.95;18.17;;;;;;;5.36;53.24;93447.44;5007761;28;20401;-76
2022/02/17 05:35:41;;;;;;;35.67;18.33;;;;;;;5.35;53.04;93436.09;5002454;28;20124;-76
2022/02/17 05:38:08;;;;;;;46.40;23.42;;;;;;;5.28;53.27;93440.97;4997702;28;20124;-76
2022/02/17 05:40:34;;;;;;;56.13;25.92;;;;;;;5.47;52.56;93438.28;5002237;28;21003;-76
2022/02/17 05:43:00;;;;;;;49.28;24.75;;;;;;;5.10;53.34;93418.03;5003494;28;20140;-76
2022/02/17 05:45:26;;;;;;;44.45;22.08;;;;;;;5.33;53.24;93440.09;4995924;28;20099;-76
2022/02/17 05:47:54;;;;;;;40.55;23.30;;;;;;;5.20;53.37;93425.00;4997543;28;20034;-75
2022/02/17 05:50:20;;;;;;;47.15;23.80;;;;;;;4.94;54.50;93445.72;5001355;28;20046;-77
2022/02/17 05:52:46;;;;;;;41.10;21.98;;;;;;;5.10;54.33;93454.94;4999644;28;21139;-76
2022/02/17 05:55:12;;;;;;;40.05;22.20;;;;;;;5.04;54.31;93430.53;5002315;28;20037;-76
2022/02/17 05:57:37;;;;;;;40.65;23.92;;;;;;;5.26;53.77;93439.69;5005740;28;20341;-75
2022/02/17 06:00:03;;;;;;;41.40;23.73;;;;;;;5.30;53.63;93432.75;5004230;28;20400;-75
2022/02/17 06:02:29;;;;;;;45.22;20.63;;;;;;;5.19;53.88;93431.38;5000260;28;20056;-75
2022/02/17 06:04:54;;;;;;;44.15;24.08;;;;;;;4.96;54.94;93428.53;5005023;28;20117;-73
2022/02/17 06:07:20;;;;;;;37.58;21.80;;;;;;;5.36;54.42;93463.25;5000834;28;20034;-73
2022/02/17 06:09:47;;;;;;;35.40;21.60;;;;;;;5.34;54.26;93439.00;5000924;28;20028;-75
2022/02/17 06:12:14;;;;;;;34.20;21.23;;;;;;;5.50;54.01;93445.59;5001888;28;20037;-74
2022/02/17 06:14:40;;;;;;;46.92;25.58;;;;;;;5.42;53.95;93425.19;5003943;28;20052;-74
2022/02/17 06:17:05;;;;;;;43.63;22.60;;;;;;;5.92;53.43;93461.19;5002960;28;20037;-75
2022/02/17 06:19:30;;;;;;;41.60;21.52;;;;;;;5.89;53.71;93468.94;5000936;28;20037;-76
2022/02/17 06:21:56;;;;;;;40.03;21.80;;;;;;;5.92;53.82;93471.75;5003469;28;20075;-75
2022/02/17 06:24:22;;;;;;;34.72;20.35;;;;;;;6.12;53.63;93483.03;4998437;28;20511;-74
2022/02/17 06:26:47;;;;;;;43.58;22.83;;;;;;;6.10;53.51;93472.00;5000874;28;20438;-74
2022/02/17 06:29:13;;;;;;;37.00;20.45;;;;;;;6.05;53.64;93474.72;5002924;28;20030;-73
2022/02/17 06:31:38;;;;;;;36.15;18.42;;;;;;;6.06;54.02;93489.50;5000635;28;20041;-74
2022/02/17 06:34:04;;;;;;;36.80;16.88;;;;;;;6.16;53.90;93497.25;4999602;28;20029;-77
2022/02/17 06:36:29;;;;;;;22.73;15.55;;;;;;;5.78;54.61;93476.25;4997420;28;20041;-73
2022/02/17 06:38:55;;;;;;;31.23;15.93;;;;;;;5.93;54.05;93462.78;5000357;28;20048;-74
2022/02/17 06:41:21;;;;;;;28.52;15.52;;;;;;;6.26;53.72;93494.44;4990425;28;20052;-75
2022/02/17 06:43:47;;;;;;;32.90;18.02;;;;;;;5.88;54.04;93462.88;4998162;28;20055;-76
2022/02/17 06:46:13;;;;;;;39.75;21.35;;;;;;;5.97;54.36;93478.81;4997766;28;20041;-74
2022/02/17 06:48:39;;;;;;;34.13;20.60;;;;;;;6.23;53.35;93466.72;5005146;28;20459;-74
2022/02/17 06:51:04;;;;;;;46.83;23.48;;;;;;;5.70;54.31;93455.81;4997312;28;20055;-74
2022/02/17 06:53:29;;;;;;;41.40;22.42;;;;;;;5.66;54.83;93486.50;4996841;28;20053;-74
2022/02/17 06:55:55;;;;;;;43.10;22.75;;;;;;;5.88;54.51;93491.09;4998533;28;20630;-74
2022/02/17 06:58:20;;;;;;;43.35;22.85;;;;;;;6.00;53.89;93465.03;5001146;28;20407;-74
2022/02/17 07:00:46;;;;;;;47.17;23.08;;;;;;;5.20;56.47;93485.66;5001612;28;20052;-75
2022/02/17 07:03:11;;;;;;;40.90;22.20;;;;;;;5.69;55.47;93483.25;5005542;28;20373;-77
2022/02/17 07:05:37;;;;;;;52.75;25.88;;;;;;;5.44;56.08;93507.41;5003598;28;20442;-76
2022/02/17 07:08:03;;;;;;;45.15;24.77;;;;;;;5.32;55.69;93465.69;5005698;28;20414;-75
2022/02/17 07:13:13;;;;;;;47.72;25.25;;;;;;;4.96;57.51;93472.56;5004693;28;20384;-74
2022/02/17 07:15:39;;;;;;;50.63;26.75;;;;;;;5.49;56.07;93447.47;5006314;28;20022;-74
2022/02/17 07:18:08;;;;;;;51.92;25.23;;;;;;;5.46;55.64;93466.50;4994899;28;20041;-77
2022/02/17 07:20:38;;;;;;;55.78;28.95;;;;;;;4.54;58.49;93449.72;5014419;28;20512;-74
2022/02/17 07:23:04;;;;;;;56.97;28.08;;;;;;;4.88;57.70;93452.91;4998771;28;20049;-74
2022/02/17 07:25:30;;;;;;;58.97;27.70;;;;;;;4.80;57.85;93445.63;4999637;28;20342;-74
2022/02/17 07:27:55;;;;;;;49.17;28.50;;;;;;;5.44;56.90;93450.19;5004403;28;20028;-75
2022/02/17 07:30:20;;;;;;;57.92;29.05;;;;;;;4.62;57.67;93417.47;5004781;28;20082;-75
2022/02/17 07:32:46;;;;;;;48.35;28.70;;;;;;;5.03;57.71;93412.38;5004106;28;20049;-74
2022/02/17 07:35:12;;;;;;;49.00;26.67;;;;;;;4.92;58.46;93442.59;4999916;28;20427;-73
2022/02/17 07:37:38;;;;;;;53.95;28.55;;;;;;;4.95;58.19;93444.63;5002829;28;20171;-74
2022/02/17 07:40:08;;;;;;;49.70;26.60;;;;;;;4.36;59.98;93419.63;5003033;28;20244;-74
2022/02/17 07:42:34;;;;;;;58.53;28.65;;;;;;;4.03;61.29;93413.44;5006135;28;20184;-74
2022/02/17 07:45:00;;;;;;;48.85;25.25;;;;;;;4.59;61.53;93434.63;5018483;28;20053;-75
2022/02/17 07:47:26;;;;;;;53.40;28.30;;;;;;;4.22;61.38;93419.53;5000344;28;20412;-74
2022/02/17 07:49:56;;;;;;;50.63;26.35;;;;;;;4.35;61.64;93419.94;5000514;28;20539;-75
2022/02/17 07:52:21;;;;;;;48.92;27.52;;;;;;;4.04;62.61;93401.88;5003212;28;20136;-75
2022/02/17 07:54:47;;;;;;;62.25;28.20;;;;;;;4.28;62.26;93371.03;5005828;28;20641;-74
2022/02/17 07:57:12;;;;;;;55.47;28.13;;;;;;;4.33;62.21;93372.84;5006517;28;20534;-75
2022/02/17 07:59:38;;;;;;;64.95;31.60;;;;;;;3.39;66.19;93346.31;5001491;28;20797;-73
2022/02/17 08:02:03;;;;;;;64.93;30.70;;;;;;;4.15;65.73;93386.75;5004179;28;20148;-74
2022/02/17 08:04:30;;;;;;;62.85;33.08;;;;;;;4.24;64.84;93383.19;5001197;28;20117;-74
2022/02/17 08:06:56;;;;;;;55.10;29.13;;;;;;;4.00;65.47;93363.25;5004222;28;20539;-73
2022/02/17 08:09:22;;;;;;;52.67;29.50;;;;;;;4.94;63.17;93385.13;4999962;28;20045;-76
2022/02/17 08:11:48;;;;;;;53.17;27.88;;;;;;;4.40;63.55;93372.50;5003665;28;20396;-73
2022/02/17 08:14:13;;;;;;;60.40;29.33;;;;;;;4.63;61.46;93350.53;5000221;28;20073;-77
2022/02/17 08:16:38;;;;;;;55.88;29.27;;;;;;;4.13;62.88;93360.69;5006116;28;20096;-73
2022/02/17 08:19:06;;;;;;;59.22;27.65;;;;;;;4.64;61.29;93363.44;4999138;28;20148;-74
2022/02/17 08:21:32;;;;;;;53.25;27.67;;;;;;;4.71;61.11;93373.59;5006303;28;20045;-74
2022/02/17 08:23:58;;;;;;;61.03;29.83;;;;;;;4.59;61.27;93375.91;5000444;28;20081;-75
2022/02/17 08:26:23;;;;;;;48.75;26.67;;;;;;;4.82;61.42;93364.47;5005992;28;20037;-73
2022/02/17 08:28:55;;;;;;;58.35;28.50;;;;;;;5.40;59.77;93369.28;5007630;28;20045;-76
2022/02/17 08:31:21;;;;;;;53.17;27.63;;;;;;;5.46;59.30;93378.69;5010112;28;20025;-75
2022/02/17 08:33:46;;;;;;;53.45;27.02;;;;;;;5.16;60.68;93376.56;4988280;28;20132;-74
2022/02/17 08:36:11;;;;;;;45.50;27.55;;;;;;;5.49;59.30;93359.63;5002874;28;20095;-74
2022/02/17 08:38:37;;;;;;;47.05;27.85;;;;;;;5.33;59.29;93356.50;5019179;28;20042;-75
2022/02/17 08:41:02;;;;;;;50.70;24.33;;;;;;;5.58;58.50;93381.63;5000208;28;20416;-74
2022/02/17 08:43:28;;;;;;;43.08;25.05;;;;;;;5.57;58.25;93358.97;5002948;28;20056;-74
2022/02/17 08:45:53;;;;;;;44.55;22.63;;;;;;;5.65;58.43;93384.66;5002388;28;20511;-75
2022/02/17 08:48:19;;;;;;;41.47;22.25;;;;;;;5.20;58.44;93359.09;5003013;28;20044;-74
2022/02/17 08:50:46;;;;;;;38.50;20.38;;;;;;;5.43;58.66;93364.22;5003690;28;20132;-74
2022/02/17 08:53:11;;;;;;;41.90;21.98;;;;;;;5.52;58.57;93366.97;5008002;28;20033;-74
2022/02/17 08:55:37;;;;;;;44.63;23.17;;;;;;;5.34;58.69;93349.34;5002042;28;20056;-74
2022/02/17 08:58:03;;;;;;;36.42;22.27;;;;;;;5.70;58.14;93331.81;5005559;28;20371;-76
2022/02/17 09:00:28;;;;;;;40.00;21.73;;;;;;;6.43;56.04;93328.97;5002227;28;20033;-74
2022/02/17 09:02:54;;;;;;;48.58;21.52;;;;;;;6.31;55.75;93312.84;5007886;28;20447;-74
2022/02/17 09:05:20;;;;;;;45.65;21.75;;;;;;;6.11;56.21;93323.84;4999143;28;20046;-74
2022/02/17 09:07:45;;;;;;;40.83;19.95;;;;;;;5.80;56.57;93336.88;5001831;28;20049;-75
2022/02/17 09:10:10;;;;;;;36.70;21.60;;;;;;;5.98;56.84;93319.34;4999829;28;20135;-76
2022/02/17 09:12:37;;;;;;;45.55;23.13;;;;;;;5.77;56.70;93337.47;4997855;28;20529;-76
2022/02/17 09:15:04;;;;;;;49.25;24.50;;;;;;;6.13;56.57;93336.75;4991474;28;20049;-76
2022/02/17 09:17:30;;;;;;;44.15;22.92;;;;;;;6.26;56.00;93343.91;5005305;28;20138;-75
2022/02/17 09:19:55;;;;;;;44.67;22.48;;;;;;;5.98;56.22;93319.34;5006486;28;20396;-75
2022/02/17 09:22:21;;;;;;;38.75;21.90;;;;;;;5.98;56.27;93322.00;5006589;28;20033;-75
2022/02/17 09:24:47;;;;;;;51.72;23.25;;;;;;;5.86;56.31;93301.41;5006479;28;20570;-75
2022/02/17 09:27:13;;;;;;;41.78;21.67;;;;;;;6.13;56.40;93340.16;5004075;28;20546;-76
2022/02/17 09:29:40;;;;;;;34.83;21.38;;;;;;;6.04;55.94;93330.59;5005110;28;20128;-76
2022/02/17 09:32:05;;;;;;;52.50;25.90;;;;;;;5.87;56.57;93331.97;5010069;28;20366;-78
2022/02/17 09:34:31;;;;;;;42.03;21.95;;;;;;;6.48;55.25;93312.22;5002824;28;20389;-76
2022/02/17 09:36:56;;;;;;;49.90;21.65;;;;;;;6.60;55.65;93312.50;5009131;28;20037;-76
2022/02/17 09:39:22;;;;;;;41.28;21.48;;;;;;;6.47;55.05;93331.00;5006121;28;20056;-76
2022/02/17 09:41:48;;;;;;;42.83;19.92;;;;;;;6.44;55.67;93332.41;5006686;28;20135;-76
2022/02/17 09:44:18;;;;;;;40.47;20.05;;;;;;;6.22;55.94;93321.78;5000863;28;20076;-76
2022/02/17 09:46:46;;;;;;;50.33;21.42;;;;;;;6.42;55.69;93322.13;5004505;28;21184;-75
2022/02/17 09:49:16;;;;;;;39.95;20.70;;;;;;;6.56;55.48;93326.56;5005458;28;20037;-76
2022/02/17 09:51:43;;;;;;;41.80;22.70;;;;;;;5.97;56.38;93310.66;5006075;28;20028;-74
2022/02/17 09:54:09;;;;;;;41.72;18.00;;;;;;;6.28;56.33;93328.53;4998595;28;20100;-75
2022/02/17 09:56:39;;;;;;;30.15;18.10;;;;;;;6.66;55.43;93324.47;5005017;28;20066;-75
2022/02/17 09:59:05;;;;;;;33.72;17.10;;;;;;;6.98;55.09;93323.47;5002217;28;20194;-75
2022/02/17 10:01:31;;;;;;;32.08;17.27;;;;;;;6.46;55.57;93305.69;5003156;28;20060;-75
2022/02/17 10:04:18;;;;;;;63.67;32.13;;;;;;;6.64;55.67;93313.44;5005220;28;20082;-75
2022/02/17 10:06:48;;;;;;;34.65;18.15;;;;;;;6.59;55.61;93304.84;4998476;28;20368;-75
2022/02/17 10:09:15;;;;;;;46.55;24.92;;;;;;;6.52;56.06;93292.06;5004170;28;20037;-78
2022/02/17 10:11:43;;;;;;;41.92;18.33;;;;;;;6.54;55.65;93287.25;5002373;28;20038;-75
2022/02/17 10:14:16;;;;;;;73.07;30.30;;;;;;;6.77;55.71;93299.38;5001109;28;20053;-75
2022/02/17 10:17:05;;;;;;;34.85;18.58;;;;;;;6.47;55.94;93284.25;4997023;28;20620;-74
2022/02/17 10:19:40;;;;;;;122.43;46.42;;;;;;;7.22;55.20;93291.41;4995441;28;20366;-75
2022/02/17 10:22:08;;;;;;;36.75;18.35;;;;;;;7.26;54.04;93287.84;5009830;28;20036;-74
2022/02/17 10:24:38;;;;;;;33.60;15.52;;;;;;;7.14;54.52;93268.34;4999128;28;20061;-75
2022/02/17 10:27:09;;;;;;;52.35;24.13;;;;;;;7.14;54.95;93271.00;5005483;28;20047;-77
2022/02/17 10:29:36;;;;;;;38.75;19.35;;;;;;;7.27;53.84;93262.16;5019154;28;20509;-77
2022/02/17 10:32:10;;;;;;;45.17;21.48;;;;;;;7.47;53.74;93255.56;5008097;28;20525;-77
2022/02/17 10:34:36;;;;;;;28.00;16.45;;;;;;;7.25;53.97;93217.50;5005566;28;20577;-77
2022/02/17 10:37:02;;;;;;;32.95;17.77;;;;;;;7.54;53.45;93235.47;5009767;28;20477;-77
2022/02/17 10:39:33;;;;;;;47.03;23.45;;;;;;;7.89;53.51;93235.59;5013921;28;20171;-77
2022/02/17 10:42:02;;;;;;;29.40;16.80;;;;;;;7.65;53.23;93244.72;5006046;28;20036;-77
2022/02/17 10:44:33;;;;;;;40.75;20.23;;;;;;;7.92;52.90;93229.69;5000783;28;20044;-77
2022/02/17 10:47:18;;;;;;;35.38;18.80;;;;;;;7.98;52.69;93220.47;4995037;28;20634;-77
2022/02/17 10:49:47;;;;;;;52.47;24.20;;;;;;;8.29;51.88;93218.47;5001525;28;20057;-75
2022/02/17 10:52:25;;;;;;;57.22;24.17;;;;;;;8.18;52.14;93193.38;5004023;28;20665;-75
2022/02/17 10:55:09;;;;;;;32.53;18.40;;;;;;;8.20;52.04;93175.31;4999199;28;20582;-76
2022/02/17 10:57:34;;;;;;;31.58;16.65;;;;;;;8.04;51.73;93168.94;5003743;28;20042;-75
2022/02/17 11:00:11;;;;;;;38.95;20.67;;;;;;;8.10;51.98;93184.38;5004096;28;20551;-75
2022/02/17 11:02:38;;;;;;;69.72;28.85;;;;;;;8.29;51.80;93165.50;5007235;28;20479;-76
2022/02/17 11:05:07;;;;;;;44.10;21.50;;;;;;;8.32;51.06;93154.25;5015997;28;20064;-75
2022/02/17 11:07:35;;;;;;;32.42;17.00;;;;;;;8.46;50.81;93175.31;5002699;28;20087;-75
2022/02/17 11:10:01;;;;;;;27.98;14.77;;;;;;;8.34;51.26;93167.19;5020261;28;20036;-75
2022/02/17 11:12:27;;;;;;;33.03;15.70;;;;;;;8.19;51.76;93139.31;5006161;28;20033;-75
2022/02/17 11:14:56;;;;;;;28.98;17.65;;;;;;;8.31;51.66;93147.44;4994195;28;20084;-76
2022/02/17 11:17:23;;;;;;;29.88;15.88;;;;;;;8.82;50.98;93167.72;5005917;28;20069;-75
2022/02/17 11:19:49;;;;;;;28.40;15.23;;;;;;;8.84;50.24;93124.97;5000443;28;20041;-77
2022/02/17 11:22:16;;;;;;;31.75;17.00;;;;;;;9.08;50.04;93158.88;5007768;28;20080;-75
2022/02/17 11:25:00;;;;;;;40.10;20.10;;;;;;;9.21;49.64;93148.06;5015794;28;20026;-76
2022/02/17 11:27:26;;;;;;;23.35;13.98;;;;;;;9.41;48.93;93131.41;5002661;28;20413;-75